createdAt,value
2023-05-26T00:00:15.648Z,102677.50
2023-05-26T00:02:43.610Z,102684.56
2023-05-26T00:05:11.547Z,102682.84
2023-05-26T00:07:41.632Z,102688.97
2023-05-26T00:10:11.436Z,102691.63
2023-05-26T00:12:40.071Z,102685.63
2023-05-26T00:15:08.977Z,102696.09
2023-05-26T00:17:37.538Z,102694.34
2023-05-26T00:20:08.747Z,102697.91
2023-05-26T00:22:36.396Z,102699.78
2023-05-26T00:25:04.613Z,102698.88
2023-05-26T00:27:31.880Z,102695.44
2023-05-26T00:29:59.390Z,102702.50
2023-05-26T00:32:27.232Z,102704.25
2023-05-26T00:34:54.545Z,102707.00
2023-05-26T00:37:23.326Z,102702.66
2023-05-26T00:39:50.631Z,102707.09
2023-05-26T00:42:18.804Z,102702.84
2023-05-26T00:44:46.181Z,102696.72
2023-05-26T00:47:13.580Z,102698.47
2023-05-26T00:49:41.082Z,102697.72
2023-05-26T00:52:08.741Z,102697.75
2023-05-26T00:54:36.582Z,102689.13
2023-05-26T00:57:05.125Z,102701.28
2023-05-26T00:59:33.543Z,102696.16
2023-05-26T01:02:02.370Z,102696.19
2023-05-26T01:04:30.246Z,102705.81
2023-05-26T01:06:57.780Z,102707.56
2023-05-26T01:09:25.480Z,102708.50
2023-05-26T01:12:08.778Z,102705.06
2023-05-26T01:15:02.869Z,102693.88
2023-05-26T01:18:11.891Z,102709.53
2023-05-26T01:21:06.875Z,102710.50
2023-05-26T01:24:22.081Z,102720.13
2023-05-26T01:27:09.657Z,102704.53
2023-05-26T01:29:37.588Z,102710.72
2023-05-26T01:32:17.004Z,102710.78
2023-05-26T01:34:44.383Z,102711.66
2023-05-26T01:37:12.070Z,102713.47
2023-05-26T01:39:39.501Z,102710.94
2023-05-26T01:42:31.387Z,102690.97
2023-05-26T01:45:17.892Z,102701.44
2023-05-26T01:47:56.267Z,102714.56
2023-05-26T01:50:58.511Z,102708.53
2023-05-26T01:53:32.004Z,102722.50
2023-05-26T01:56:02.283Z,102716.44
2023-05-26T01:58:31.838Z,102713.94
2023-05-26T02:00:59.604Z,102728.72
2023-05-26T02:03:28.266Z,102712.19
2023-05-26T02:05:56.043Z,102719.19
2023-05-26T02:08:23.578Z,102727.06
2023-05-26T02:10:51.102Z,102722.75
2023-05-26T02:13:18.555Z,102716.66
2023-05-26T02:15:46.048Z,102724.53
2023-05-26T02:18:13.852Z,102717.66
2023-05-26T02:20:41.799Z,102722.91
2023-05-26T02:23:09.357Z,102722.03
2023-05-26T02:25:38.090Z,102729.00
2023-05-26T02:28:05.815Z,102729.91
2023-05-26T02:30:34.552Z,102734.28
2023-05-26T02:33:03.402Z,102741.25
2023-05-26T02:35:30.817Z,102734.28
2023-05-26T02:37:58.187Z,102730.84
2023-05-26T02:40:26.554Z,102736.97
2023-05-26T02:42:53.830Z,102730.09
2023-05-26T02:45:21.404Z,102738.81
2023-05-26T02:47:48.767Z,102734.47
2023-05-26T02:50:16.423Z,102723.22
2023-05-26T02:52:43.794Z,102733.69
2023-05-26T02:55:12.641Z,102729.34
2023-05-26T02:57:40.330Z,102723.34
2023-05-26T03:00:12.233Z,102730.28
2023-05-26T03:02:40.294Z,102717.28
2023-05-26T03:05:08.553Z,102727.69
2023-05-26T03:07:35.957Z,102724.28
2023-05-26T03:10:05.656Z,102725.06
2023-05-26T03:12:33.142Z,102724.25
2023-05-26T03:15:04.858Z,102729.50
2023-05-26T03:17:33.120Z,102729.47
2023-05-26T03:20:00.645Z,102726.03
2023-05-26T03:22:41.265Z,102724.38
2023-05-26T03:25:16.316Z,102735.72
2023-05-26T03:27:48.501Z,102734.81
2023-05-26T03:30:16.064Z,102746.13
2023-05-26T03:32:45.604Z,102742.72
2023-05-26T03:35:13.779Z,102750.47
2023-05-26T03:37:41.223Z,102747.88
2023-05-26T03:40:11.434Z,102750.50
2023-05-26T03:42:39.603Z,102746.13
2023-05-26T03:45:08.028Z,102745.34
2023-05-26T03:47:35.987Z,102741.84
2023-05-26T03:50:06.758Z,102748.84
2023-05-26T03:52:37.715Z,102754.06
2023-05-26T03:55:10.624Z,102755.78
2023-05-26T03:57:41.406Z,102754.91
2023-05-26T04:00:13.793Z,102750.59
2023-05-26T04:02:52.815Z,102754.91
2023-05-26T04:05:20.571Z,102760.13
2023-05-26T04:07:48.312Z,102758.41
2023-05-26T04:10:15.975Z,102742.78
2023-05-26T04:12:44.253Z,102758.38
2023-05-26T04:15:12.017Z,102753.16
2023-05-26T04:17:39.771Z,102760.94
2023-05-26T04:20:12.200Z,102770.50
2023-05-26T04:22:41.091Z,102768.75
2023-05-26T04:25:09.425Z,102768.75
2023-05-26T04:27:58.617Z,102767.78
2023-05-26T04:30:44.092Z,102766.03
2023-05-26T04:33:14.119Z,102769.47
2023-05-26T04:35:51.611Z,102772.03
2023-05-26T04:38:21.643Z,102771.97
2023-05-26T04:40:49.914Z,102780.53
2023-05-26T04:43:17.435Z,102764.78
2023-05-26T04:45:45.303Z,102775.03
2023-05-26T04:48:13.612Z,102766.25
2023-05-26T04:50:42.576Z,102779.16
2023-05-26T04:53:10.750Z,102778.25
2023-05-26T04:55:38.141Z,102787.75
2023-05-26T04:58:09.089Z,102785.09
2023-05-26T05:00:37.515Z,102770.31
2023-05-26T05:03:40.754Z,102776.19
2023-05-26T05:06:13.020Z,102780.41
2023-05-26T05:08:40.619Z,102786.56
2023-05-26T05:11:08.788Z,102783.88
2023-05-26T05:13:42.073Z,102785.50
2023-05-26T05:16:09.660Z,102797.69
2023-05-26T05:18:38.197Z,102795.88
2023-05-26T05:21:06.134Z,102797.63
2023-05-26T05:23:35.494Z,102789.72
2023-05-26T05:26:04.734Z,102807.00
2023-05-26T05:28:34.025Z,102799.97
2023-05-26T05:31:09.283Z,102786.88
2023-05-26T05:33:44.064Z,102801.59
2023-05-26T05:36:12.463Z,102809.47
2023-05-26T05:38:40.556Z,102800.66
2023-05-26T05:41:08.019Z,102812.72
2023-05-26T05:43:36.314Z,102807.34
2023-05-26T05:46:05.620Z,102803.72
2023-05-26T05:48:53.338Z,102806.28
2023-05-26T05:51:34.364Z,102808.56
2023-05-26T05:54:05.853Z,102803.22
2023-05-26T05:56:35.049Z,102812.78
2023-05-26T05:59:03.036Z,102829.06
2023-05-26T06:01:31.505Z,102817.72
2023-05-26T06:04:00.183Z,102829.00
2023-05-26T06:06:27.569Z,102828.94
2023-05-26T06:08:54.902Z,102817.53
2023-05-26T06:11:22.455Z,102834.13
2023-05-26T06:13:49.884Z,102836.47
2023-05-26T06:16:17.283Z,102838.25
2023-05-26T06:18:44.839Z,102835.38
2023-05-26T06:21:13.472Z,102825.75
2023-05-26T06:23:42.427Z,102832.84
2023-05-26T06:26:10.722Z,102844.00
2023-05-26T06:28:37.992Z,102833.44
2023-05-26T06:31:06.642Z,102847.31
2023-05-26T06:33:40.763Z,102838.34
2023-05-26T06:36:09.256Z,102834.78
2023-05-26T06:38:37.741Z,102834.72
2023-05-26T06:41:23.303Z,102831.94
2023-05-26T06:43:50.723Z,102839.72
2023-05-26T06:46:18.164Z,102833.59
2023-05-26T06:48:46.017Z,102843.13
2023-05-26T06:51:24.027Z,102838.63
2023-05-26T06:53:51.431Z,102845.41
2023-05-26T06:56:19.598Z,102845.00
2023-05-26T06:58:47.133Z,102837.00
2023-05-26T07:01:14.603Z,102844.78
2023-05-26T07:03:42.066Z,102842.28
2023-05-26T07:06:09.544Z,102847.53
2023-05-26T07:08:39.788Z,102837.66
2023-05-26T07:11:21.041Z,102835.72
2023-05-26T07:13:55.801Z,102841.75
2023-05-26T07:16:23.511Z,102843.88
2023-05-26T07:18:51.619Z,102846.97
2023-05-26T07:21:22.945Z,102831.78
2023-05-26T07:23:56.165Z,102846.69
2023-05-26T07:26:25.415Z,102840.44
2023-05-26T07:28:53.590Z,102849.50
2023-05-26T07:31:23.226Z,102864.16
2023-05-26T07:33:55.877Z,102856.47
2023-05-26T07:36:23.376Z,102861.69
2023-05-26T07:38:51.025Z,102850.34
2023-05-26T07:41:18.692Z,102853.59
2023-05-26T07:43:46.218Z,102852.63
2023-05-26T07:46:15.612Z,102857.88
2023-05-26T07:48:42.963Z,102852.78
2023-05-26T07:51:10.552Z,102846.06
2023-05-26T07:53:38.871Z,102843.81
2023-05-26T07:56:08.420Z,102841.91
2023-05-26T07:58:37.042Z,102845.16
2023-05-26T08:01:08.633Z,102851.59
2023-05-26T08:03:37.354Z,102840.78
2023-05-26T08:06:17.582Z,102845.34
2023-05-26T08:08:52.071Z,102840.31
2023-05-26T08:11:19.483Z,102844.38
2023-05-26T08:13:46.828Z,102850.94
2023-05-26T08:16:17.353Z,102845.25
2023-05-26T08:18:46.018Z,102847.84
2023-05-26T08:21:14.858Z,102839.69
2023-05-26T08:23:42.784Z,102840.09
2023-05-26T08:26:10.500Z,102839.31
2023-05-26T08:28:37.859Z,102831.81
2023-05-26T08:31:05.511Z,102856.66
2023-05-26T08:33:32.987Z,102851.44
2023-05-26T08:36:00.410Z,102851.34
2023-05-26T08:38:28.403Z,102848.19
2023-05-26T08:41:01.836Z,102838.53
2023-05-26T08:43:53.432Z,102848.06
2023-05-26T08:46:23.988Z,102847.03
2023-05-26T08:48:54.280Z,102857.13
2023-05-26T08:51:21.657Z,102845.44
2023-05-26T08:53:51.161Z,102849.97
2023-05-26T08:56:19.487Z,102833.50
2023-05-26T08:58:50.676Z,102847.06
2023-05-26T09:01:20.148Z,102837.75
2023-05-26T09:03:47.563Z,102844.41
2023-05-26T09:06:16.645Z,102844.94
2023-05-26T09:08:43.949Z,102842.25
2023-05-26T09:11:26.847Z,102839.94
2023-05-26T09:13:57.344Z,102843.81
2023-05-26T09:16:28.948Z,102846.78
2023-05-26T09:18:59.735Z,102846.75
2023-05-26T09:21:28.873Z,102842.41
2023-05-26T09:24:01.747Z,102842.72
2023-05-26T09:26:36.281Z,102855.13
2023-05-26T09:29:06.618Z,102855.00
2023-05-26T09:31:50.641Z,102850.97
2023-05-26T09:34:22.298Z,102846.63
2023-05-26T09:36:54.870Z,102849.94
2023-05-26T09:39:33.883Z,102842.81
2023-05-26T09:42:07.871Z,102852.59
2023-05-26T09:44:37.191Z,102837.84
2023-05-26T09:47:08.675Z,102844.84
2023-05-26T09:49:41.410Z,102835.75
2023-05-26T09:52:13.108Z,102840.25
2023-05-26T09:54:42.977Z,102848.06
2023-05-26T09:57:15.015Z,102844.63
2023-05-26T09:59:51.167Z,102844.25
2023-05-26T10:02:25.107Z,102840.06
2023-05-26T10:04:54.628Z,102850.25
2023-05-26T10:07:23.368Z,102836.00
2023-05-26T10:10:04.833Z,102838.06
2023-05-26T10:12:35.609Z,102832.78
2023-05-26T10:15:05.784Z,102833.91
2023-05-26T10:17:33.790Z,102840.47
2023-05-26T10:20:03.690Z,102830.84
2023-05-26T10:23:13.989Z,102829.06
2023-05-26T10:26:26.272Z,102820.22
2023-05-26T10:29:11.279Z,102826.38
2023-05-26T10:31:41.670Z,102833.00
2023-05-26T10:34:46.207Z,102823.03
2023-05-26T10:37:18.976Z,102818.72
2023-05-26T10:39:46.399Z,102812.81
2023-05-26T10:42:32.597Z,102817.91
2023-05-26T10:45:19.702Z,102813.03
2023-05-26T10:47:50.084Z,102804.41
2023-05-26T10:50:17.901Z,102813.00
2023-05-26T10:52:52.487Z,102807.47
2023-05-26T10:55:54.510Z,102808.75
2023-05-26T10:58:32.984Z,102806.59
2023-05-26T11:01:15.784Z,102804.44
2023-05-26T11:03:50.150Z,102805.19
2023-05-26T11:06:36.809Z,102816.06
2023-05-26T11:09:12.044Z,102801.69
2023-05-26T11:12:13.503Z,102800.34
2023-05-26T11:14:41.297Z,102794.44
2023-05-26T11:17:08.838Z,102795.06
2023-05-26T11:19:39.623Z,102808.09
2023-05-26T11:22:14.024Z,102802.81
2023-05-26T11:24:41.591Z,102799.63
2023-05-26T11:27:08.915Z,102792.47
2023-05-26T11:29:37.540Z,102797.09
2023-05-26T11:32:05.849Z,102795.94
2023-05-26T11:34:35.544Z,102793.03
2023-05-26T11:37:03.079Z,102801.22
2023-05-26T11:39:36.948Z,102788.22
2023-05-26T11:42:11.675Z,102791.81
2023-05-26T11:44:40.510Z,102785.66
2023-05-26T11:47:08.507Z,102798.44
2023-05-26T11:49:35.972Z,102795.25
2023-05-26T11:52:03.866Z,102781.50
2023-05-26T11:54:34.199Z,102786.06
2023-05-26T11:57:01.703Z,102781.06
2023-05-26T11:59:31.272Z,102776.38
2023-05-26T12:02:04.251Z,102785.31
2023-05-26T12:04:34.958Z,102779.50
2023-05-26T12:07:02.951Z,102780.19
2023-05-26T12:09:30.673Z,102781.13
2023-05-26T12:11:58.865Z,102786.56
2023-05-26T12:14:28.399Z,102788.81
2023-05-26T12:16:56.991Z,102772.19
2023-05-26T12:19:26.372Z,102777.63
2023-05-26T12:21:58.676Z,102782.06
2023-05-26T12:24:38.765Z,102791.75
2023-05-26T12:27:08.101Z,102771.44
2023-05-26T12:29:45.453Z,102768.59
2023-05-26T12:32:13.355Z,102759.41
2023-05-26T12:34:42.945Z,102769.91
2023-05-26T12:37:11.331Z,102778.97
2023-05-26T12:39:38.844Z,102769.31
2023-05-26T12:42:08.230Z,102755.13
2023-05-26T12:44:35.676Z,102754.38
2023-05-26T12:47:03.177Z,102764.41
2023-05-26T12:49:30.555Z,102771.09
2023-05-26T12:51:57.828Z,102766.56
2023-05-26T12:54:25.198Z,102767.00
2023-05-26T12:56:54.118Z,102767.50
2023-05-26T12:59:24.241Z,102763.78
2023-05-26T13:01:51.703Z,102763.59
2023-05-26T13:04:19.820Z,102760.81
2023-05-26T13:06:56.454Z,102765.00
2023-05-26T13:09:25.983Z,102751.78
2023-05-26T13:11:54.381Z,102753.91
2023-05-26T13:14:21.961Z,102741.91
2023-05-26T13:16:49.475Z,102756.50
2023-05-26T13:19:17.912Z,102748.28
2023-05-26T13:21:47.851Z,102736.69
2023-05-26T13:24:16.037Z,102739.66
2023-05-26T13:26:45.061Z,102727.91
2023-05-26T13:29:13.682Z,102734.41
2023-05-26T13:31:42.724Z,102721.16
2023-05-26T13:34:10.546Z,102730.25
2023-05-26T13:36:41.393Z,102735.09
2023-05-26T13:39:08.905Z,102715.84
2023-05-26T13:41:37.246Z,102722.75
2023-05-26T13:44:05.010Z,102714.16
2023-05-26T13:46:32.389Z,102714.56
2023-05-26T13:49:01.052Z,102718.53
2023-05-26T13:51:29.422Z,102722.06
2023-05-26T13:53:58.275Z,102714.81
2023-05-26T13:56:27.431Z,102722.09
2023-05-26T13:58:55.653Z,102723.72
2023-05-26T14:03:56.850Z,102706.25
2023-05-26T14:06:26.132Z,102708.47
2023-05-26T14:08:54.556Z,102703.78
2023-05-26T14:11:23.593Z,102698.06
2023-05-26T14:13:52.569Z,102694.50
2023-05-26T14:16:20.980Z,102706.13
2023-05-26T14:19:04.368Z,102703.25
2023-05-26T14:22:00.534Z,102702.00
2023-05-26T14:24:24.873Z,102706.06
2023-05-26T14:26:52.286Z,102697.75
2023-05-26T14:29:22.080Z,102694.47
2023-05-26T14:31:53.838Z,102691.00
2023-05-26T14:34:21.624Z,102699.69
2023-05-26T14:36:48.971Z,102697.84
2023-05-26T14:39:16.538Z,102687.63
2023-05-26T14:41:44.689Z,102693.66
2023-05-26T14:44:12.137Z,102689.72
2023-05-26T14:46:41.163Z,102684.75
2023-05-26T14:49:12.021Z,102686.31
2023-05-26T14:51:39.463Z,102683.97
2023-05-26T14:54:07.435Z,102688.56
2023-05-26T14:56:35.154Z,102687.09
2023-05-26T14:59:03.359Z,102689.97
2023-05-26T15:01:31.031Z,102694.38
2023-05-26T15:04:13.577Z,102676.06
2023-05-26T15:06:43.069Z,102690.59
2023-05-26T15:09:10.419Z,102677.59
2023-05-26T15:11:37.794Z,102678.97
2023-05-26T15:14:06.917Z,102675.72
2023-05-26T15:16:37.639Z,102681.53
2023-05-26T15:19:05.721Z,102675.00
2023-05-26T15:21:38.853Z,102681.78
2023-05-26T15:24:08.847Z,102677.88
2023-05-26T15:26:36.842Z,102681.66
2023-05-26T15:29:04.336Z,102667.91
2023-05-26T15:31:33.383Z,102670.97
2023-05-26T15:34:00.805Z,102660.66
2023-05-26T15:36:28.547Z,102672.09
2023-05-26T15:38:58.025Z,102663.31
2023-05-26T15:41:30.022Z,102665.50
2023-05-26T15:44:04.101Z,102668.34
2023-05-26T15:46:31.643Z,102678.47
2023-05-26T15:48:59.102Z,102678.66
2023-05-26T15:51:26.450Z,102666.28
2023-05-26T15:53:53.824Z,102664.41
2023-05-26T15:56:21.367Z,102671.38
2023-05-26T15:58:48.849Z,102685.47
2023-05-26T16:01:19.055Z,102674.09
2023-05-26T16:03:47.218Z,102666.63
2023-05-26T16:06:15.214Z,102670.09
2023-05-26T16:08:43.158Z,102665.28
2023-05-26T16:11:10.602Z,102669.75
2023-05-26T16:13:37.939Z,102664.09
2023-05-26T16:16:05.802Z,102669.25
2023-05-26T16:18:33.399Z,102659.22
2023-05-26T16:21:01.052Z,102665.06
2023-05-26T16:23:28.784Z,102661.97
2023-05-26T16:25:56.302Z,102657.34
2023-05-26T16:28:24.262Z,102648.63
2023-05-26T16:30:53.648Z,102644.66
2023-05-26T16:33:21.846Z,102655.78
2023-05-26T16:35:54.294Z,102661.97
2023-05-26T16:38:28.645Z,102658.22
2023-05-26T16:40:58.509Z,102650.72
2023-05-26T16:43:46.663Z,102646.56
2023-05-26T16:46:13.063Z,102656.06
2023-05-26T16:48:40.338Z,102650.06
2023-05-26T16:51:07.584Z,102642.09
2023-05-26T16:53:35.084Z,102652.06
2023-05-26T16:56:02.405Z,102643.56
2023-05-26T16:58:29.960Z,102643.94
2023-05-26T17:00:57.391Z,102654.00
2023-05-26T17:03:27.994Z,102645.38
2023-05-26T17:05:55.840Z,102639.59
2023-05-26T17:08:23.576Z,102647.06
2023-05-26T17:10:51.631Z,102650.22
2023-05-26T17:13:18.991Z,102652.03
2023-05-26T17:15:46.345Z,102648.63
2023-05-26T17:18:14.667Z,102653.06
2023-05-26T17:20:44.763Z,102647.56
2023-05-26T17:23:13.841Z,102645.75
2023-05-26T17:25:41.180Z,102652.31
2023-05-26T17:28:10.628Z,102661.41
2023-05-26T17:30:38.451Z,102655.63
2023-05-26T17:33:06.011Z,102655.72
2023-05-26T17:35:35.453Z,102650.03
2023-05-26T17:38:03.677Z,102653.84
2023-05-26T17:40:31.381Z,102654.78
2023-05-26T17:42:58.636Z,102655.06
2023-05-26T17:45:29.347Z,102646.44
2023-05-26T17:47:56.688Z,102652.38
2023-05-26T17:50:24.198Z,102665.84
2023-05-26T17:52:51.646Z,102664.31
2023-05-26T17:55:24.492Z,102663.81
2023-05-26T17:57:52.105Z,102665.41
2023-05-26T18:00:20.244Z,102669.88
2023-05-26T18:02:48.994Z,102673.56
2023-05-26T18:05:19.049Z,102676.34
2023-05-26T18:07:51.376Z,102680.53
2023-05-26T18:10:18.855Z,102687.47
2023-05-26T18:12:46.315Z,102670.81
2023-05-26T18:15:15.085Z,102688.94
2023-05-26T18:17:42.604Z,102693.22
2023-05-26T18:20:11.449Z,102683.88
2023-05-26T18:22:40.494Z,102687.00
2023-05-26T18:25:11.261Z,102691.00
2023-05-26T18:27:39.248Z,102692.47
2023-05-26T18:30:07.779Z,102693.47
2023-05-26T18:32:35.219Z,102681.56
2023-05-26T18:35:02.573Z,102683.00
2023-05-26T18:37:31.291Z,102690.59
2023-05-26T18:40:01.553Z,102687.53
2023-05-26T18:42:29.210Z,102689.06
2023-05-26T18:44:58.187Z,102683.25
2023-05-26T18:47:26.655Z,102689.88
2023-05-26T18:49:55.685Z,102677.19
2023-05-26T18:52:23.342Z,102685.34
2023-05-26T18:54:51.407Z,102687.28
2023-05-26T18:57:19.138Z,102688.38
2023-05-26T18:59:46.944Z,102680.81
2023-05-26T19:02:14.526Z,102681.28
2023-05-26T19:04:42.169Z,102688.56
2023-05-26T19:07:10.821Z,102692.59
2023-05-26T19:09:38.235Z,102699.72
2023-05-26T19:12:05.883Z,102691.53
2023-05-26T19:14:33.377Z,102699.75
2023-05-26T19:17:00.748Z,102693.91
2023-05-26T19:19:28.369Z,102694.41
2023-05-26T19:21:56.851Z,102695.66
2023-05-26T19:24:24.354Z,102695.94
2023-05-26T19:26:51.772Z,102709.56
2023-05-26T19:29:19.116Z,102709.69
2023-05-26T19:31:46.509Z,102710.91
2023-05-26T19:34:13.872Z,102706.88
2023-05-26T19:36:41.965Z,102713.41
2023-05-26T19:39:09.432Z,102718.25
2023-05-26T19:41:37.222Z,102708.03
2023-05-26T19:44:04.585Z,102710.16
2023-05-26T19:46:32.822Z,102718.59
2023-05-26T19:49:00.567Z,102719.81
2023-05-26T19:51:27.944Z,102725.41
2023-05-26T19:53:55.276Z,102717.09
2023-05-26T19:56:23.516Z,102726.81
2023-05-26T19:58:50.813Z,102729.75
2023-05-26T20:01:20.687Z,102732.91
2023-05-26T20:03:48.091Z,102728.84
2023-05-26T20:06:15.749Z,102730.88
2023-05-26T20:08:43.003Z,102725.91
2023-05-26T20:11:10.378Z,102729.69
2023-05-26T20:13:37.794Z,102740.56
2023-05-26T20:16:06.961Z,102741.72
2023-05-26T20:18:35.524Z,102735.03
2023-05-26T20:21:03.028Z,102739.66
2023-05-26T20:23:30.413Z,102738.06
2023-05-26T20:25:57.780Z,102722.66
2023-05-26T20:28:25.232Z,102736.72
2023-05-26T20:30:52.517Z,102735.94
2023-05-26T20:33:19.895Z,102736.03
2023-05-26T20:35:47.450Z,102736.22
2023-05-26T20:38:14.870Z,102732.00
2023-05-26T20:40:42.365Z,102741.69
2023-05-26T20:43:09.739Z,102735.03
2023-05-26T20:45:38.634Z,102732.53
2023-05-26T20:48:05.956Z,102731.00
2023-05-26T20:50:33.361Z,102739.84
2023-05-26T20:53:02.270Z,102735.59
2023-05-26T20:55:35.143Z,102739.31
2023-05-26T20:58:02.441Z,102746.47
2023-05-26T21:00:29.902Z,102739.72
2023-05-26T21:02:57.596Z,102740.78
2023-05-26T21:05:27.407Z,102736.53
2023-05-26T21:07:54.852Z,102734.91
2023-05-26T21:10:22.336Z,102722.97
2023-05-26T21:12:49.612Z,102735.44
2023-05-26T21:15:17.235Z,102727.59
2023-05-26T21:17:44.639Z,102731.16
2023-05-26T21:20:12.053Z,102733.16
2023-05-26T21:22:39.402Z,102723.72
2023-05-26T21:25:08.996Z,102722.09
2023-05-26T21:27:36.405Z,102732.75
2023-05-26T21:30:05.556Z,102722.38
2023-05-26T21:32:32.923Z,102729.50
2023-05-26T21:35:00.436Z,102723.50
2023-05-26T21:37:27.777Z,102729.75
2023-05-26T21:39:55.129Z,102722.81
2023-05-26T21:42:23.396Z,102727.34
2023-05-26T21:44:51.769Z,102725.72
2023-05-26T21:47:20.688Z,102724.91
2023-05-26T21:49:48.479Z,102722.47
2023-05-26T21:52:15.923Z,102721.75
2023-05-26T21:54:43.234Z,102714.84
2023-05-26T21:57:10.788Z,102725.41
2023-05-26T21:59:38.296Z,102721.16
2023-05-26T22:02:06.257Z,102720.31
2023-05-26T22:04:33.872Z,102721.38
2023-05-26T22:07:01.178Z,102729.28
2023-05-26T22:09:28.577Z,102719.81
2023-05-26T22:11:56.028Z,102732.09
2023-05-26T22:14:26.177Z,102727.06
2023-05-26T22:16:54.750Z,102724.59
2023-05-26T22:19:22.230Z,102720.28
2023-05-26T22:21:49.544Z,102726.44
2023-05-26T22:24:16.918Z,102728.34
2023-05-26T22:26:44.998Z,102723.19
2023-05-26T22:29:12.541Z,102721.56
2023-05-26T22:31:39.878Z,102719.06
2023-05-26T22:34:07.178Z,102720.06
2023-05-26T22:36:34.439Z,102726.22
2023-05-26T22:39:06.085Z,102725.38
2023-05-26T22:41:34.283Z,102719.38
2023-05-26T22:44:01.593Z,102707.41
2023-05-26T22:46:30.226Z,102719.53
2023-05-26T22:48:57.617Z,102717.91
2023-05-26T22:51:25.176Z,102720.56
2023-05-26T22:53:52.459Z,102720.59
2023-05-26T22:56:20.121Z,102722.44
2023-05-26T22:58:48.185Z,102715.59
2023-05-26T23:01:15.572Z,102711.38
2023-05-26T23:03:43.087Z,102709.59
2023-05-26T23:06:10.656Z,102713.22
2023-05-26T23:08:38.841Z,102711.47
2023-05-26T23:11:10.110Z,102715.09
2023-05-26T23:13:38.262Z,102716.06
2023-05-26T23:16:06.795Z,102711.75
2023-05-26T23:18:35.164Z,102709.16
2023-05-26T23:21:03.093Z,102707.59
2023-05-26T23:23:30.469Z,102698.16
2023-05-26T23:25:58.443Z,102714.75
2023-05-26T23:28:25.874Z,102700.94
2023-05-26T23:30:53.310Z,102704.44
2023-05-26T23:33:20.615Z,102706.22
2023-05-26T23:35:48.258Z,102705.50
2023-05-26T23:38:16.230Z,102708.06
2023-05-26T23:40:43.860Z,102694.19
2023-05-26T23:43:12.141Z,102703.00
2023-05-26T23:45:39.862Z,102700.53
2023-05-26T23:48:07.535Z,102704.94
2023-05-26T23:50:34.889Z,102703.28
2023-05-26T23:53:02.275Z,102708.69
2023-05-26T23:55:29.588Z,102705.19
2023-05-26T23:57:57.013Z,102704.34
